Weyauwega, Wisconsin
Current Conditions -  °F | °C
As of 4:35 AM on Sunday 21 Dec 2014 (Local Time) from KPCZ Reporting Station
Haze Haze  
Wind Chill: 26°   Ceiling: 1100
Heat Index: 31°   Visibility: 4mi
Dew Point: 28°   Wind: 5mph
Humidity: 89%   Direction: 140°SE
Pressure: 30.14"   Gusts: NA
Location:  44.32°N, 88.93°W
Report Text: KPCZ 211035Z AUTO 14004KT 4SM BR OVC011 00/M02 A3014 RMK AO2 T10051021
Loading
Personal Weather Stations






























Interactive Weather Map New forecast layout! Learn more

10-Day Weather Forecast

Advertisements
Track Severe Weather on mobile